sensor_id;sensor_type;location;lat;lon;timestamp;temperature;humidity
22917;DHT22;11624;53.250;7.456;2023-07-29T00:02:09;25.21;54.90
22917;DHT22;11624;53.250;7.456;2023-07-29T00:04:37;25.16;55.13
22917;DHT22;11624;53.250;7.456;2023-07-29T00:07:06;25.14;55.26
22917;DHT22;11624;53.250;7.456;2023-07-29T00:09:34;25.13;55.19
22917;DHT22;11624;53.250;7.456;2023-07-29T00:12:03;25.12;55.08
22917;DHT22;11624;53.250;7.456;2023-07-29T00:14:32;25.08;55.07
22917;DHT22;11624;53.250;7.456;2023-07-29T00:17:01;25.08;55.00
22917;DHT22;11624;53.250;7.456;2023-07-29T00:19:30;25.06;55.02
22917;DHT22;11624;53.250;7.456;2023-07-29T00:21:59;25.06;55.09
22917;DHT22;11624;53.250;7.456;2023-07-29T00:24:27;25.05;55.09
22917;DHT22;11624;53.250;7.456;2023-07-29T00:26:56;25.04;55.14
22917;DHT22;11624;53.250;7.456;2023-07-29T00:29:24;25.02;55.17
22917;DHT22;11624;53.250;7.456;2023-07-29T00:31:52;24.99;55.32
22917;DHT22;11624;53.250;7.456;2023-07-29T00:34:22;24.98;55.20
22917;DHT22;11624;53.250;7.456;2023-07-29T00:36:50;24.94;55.09
22917;DHT22;11624;53.250;7.456;2023-07-29T00:39:19;24.90;55.10
22917;DHT22;11624;53.250;7.456;2023-07-29T00:41:47;24.86;55.07
22917;DHT22;11624;53.250;7.456;2023-07-29T00:44:16;24.80;55.05
22917;DHT22;11624;53.250;7.456;2023-07-29T00:46:45;24.77;55.15
22917;DHT22;11624;53.250;7.456;2023-07-29T00:49:15;24.74;55.45
22917;DHT22;11624;53.250;7.456;2023-07-29T00:51:45;24.72;55.44
22917;DHT22;11624;53.250;7.456;2023-07-29T00:54:13;24.70;55.88
22917;DHT22;11624;53.250;7.456;2023-07-29T00:56:42;24.68;55.76
22917;DHT22;11624;53.250;7.456;2023-07-29T00:59:11;24.65;55.87
22917;DHT22;11624;53.250;7.456;2023-07-29T01:01:40;24.64;56.03
22917;DHT22;11624;53.250;7.456;2023-07-29T01:04:09;24.60;56.27
22917;DHT22;11624;53.250;7.456;2023-07-29T01:06:50;24.59;56.21
22917;DHT22;11624;53.250;7.456;2023-07-29T01:09:28;24.57;56.58
22917;DHT22;11624;53.250;7.456;2023-07-29T01:12:07;24.56;56.55
22917;DHT22;11624;53.250;7.456;2023-07-29T01:14:41;24.58;56.91
22917;DHT22;11624;53.250;7.456;2023-07-29T01:17:13;24.57;56.87
22917;DHT22;11624;53.250;7.456;2023-07-29T01:19:48;24.55;56.88
22917;DHT22;11624;53.250;7.456;2023-07-29T01:22:19;24.55;57.51
22917;DHT22;11624;53.250;7.456;2023-07-29T01:24:50;24.57;57.66
22917;DHT22;11624;53.250;7.456;2023-07-29T01:27:18;24.57;57.77
22917;DHT22;11624;53.250;7.456;2023-07-29T01:29:47;24.61;57.78
22917;DHT22;11624;53.250;7.456;2023-07-29T01:32:20;24.62;57.43
22917;DHT22;11624;53.250;7.456;2023-07-29T01:34:56;24.68;57.66
22917;DHT22;11624;53.250;7.456;2023-07-29T01:37:30;24.71;57.50
22917;DHT22;11624;53.250;7.456;2023-07-29T01:40:01;24.72;57.58
22917;DHT22;11624;53.250;7.456;2023-07-29T01:42:30;24.73;57.72
22917;DHT22;11624;53.250;7.456;2023-07-29T01:44:59;24.74;57.74
22917;DHT22;11624;53.250;7.456;2023-07-29T01:47:28;24.75;57.80
22917;DHT22;11624;53.250;7.456;2023-07-29T01:49:56;24.76;57.82
22917;DHT22;11624;53.250;7.456;2023-07-29T01:52:25;24.75;57.86
22917;DHT22;11624;53.250;7.456;2023-07-29T01:54:53;24.76;57.87
22917;DHT22;11624;53.250;7.456;2023-07-29T01:57:23;24.76;57.85
22917;DHT22;11624;53.250;7.456;2023-07-29T01:59:51;24.73;57.92
22917;DHT22;11624;53.250;7.456;2023-07-29T02:02:19;24.72;58.03
22917;DHT22;11624;53.250;7.456;2023-07-29T02:04:48;24.70;58.00
22917;DHT22;11624;53.250;7.456;2023-07-29T02:07:18;24.68;58.05
22917;DHT22;11624;53.250;7.456;2023-07-29T02:09:47;24.68;58.00
22917;DHT22;11624;53.250;7.456;2023-07-29T02:12:15;24.63;58.19
22917;DHT22;11624;53.250;7.456;2023-07-29T02:14:45;24.62;58.13
22917;DHT22;11624;53.250;7.456;2023-07-29T02:17:13;24.59;58.24
22917;DHT22;11624;53.250;7.456;2023-07-29T02:19:42;24.61;58.20
22917;DHT22;11624;53.250;7.456;2023-07-29T02:22:12;24.56;58.35
22917;DHT22;11624;53.250;7.456;2023-07-29T02:24:41;24.50;58.61
22917;DHT22;11624;53.250;7.456;2023-07-29T02:27:09;24.49;58.61
22917;DHT22;11624;53.250;7.456;2023-07-29T02:29:38;24.50;58.58
22917;DHT22;11624;53.250;7.456;2023-07-29T02:32:07;24.53;58.51
22917;DHT22;11624;53.250;7.456;2023-07-29T02:34:36;24.49;58.62
22917;DHT22;11624;53.250;7.456;2023-07-29T02:37:04;24.45;58.83
22917;DHT22;11624;53.250;7.456;2023-07-29T02:39:33;24.46;58.83
22917;DHT22;11624;53.250;7.456;2023-07-29T02:42:01;24.46;58.84
22917;DHT22;11624;53.250;7.456;2023-07-29T02:44:30;24.49;58.75
22917;DHT22;11624;53.250;7.456;2023-07-29T02:46:58;24.47;58.79
22917;DHT22;11624;53.250;7.456;2023-07-29T02:49:28;24.44;58.87
22917;DHT22;11624;53.250;7.456;2023-07-29T02:51:56;24.45;58.96
22917;DHT22;11624;53.250;7.456;2023-07-29T02:54:25;24.46;58.95
22917;DHT22;11624;53.250;7.456;2023-07-29T02:56:53;24.49;58.91
22917;DHT22;11624;53.250;7.456;2023-07-29T02:59:22;24.48;59.00
22917;DHT22;11624;53.250;7.456;2023-07-29T03:01:50;24.49;58.99
22917;DHT22;11624;53.250;7.456;2023-07-29T03:04:20;24.49;59.01
22917;DHT22;11624;53.250;7.456;2023-07-29T03:06:52;24.51;58.87
22917;DHT22;11624;53.250;7.456;2023-07-29T03:09:20;24.49;58.96
22917;DHT22;11624;53.250;7.456;2023-07-29T03:11:49;24.47;59.02
22917;DHT22;11624;53.250;7.456;2023-07-29T03:14:17;24.47;58.96
22917;DHT22;11624;53.250;7.456;2023-07-29T03:16:46;24.46;59.00
22917;DHT22;11624;53.250;7.456;2023-07-29T03:19:15;24.45;58.96
22917;DHT22;11624;53.250;7.456;2023-07-29T03:21:43;24.48;58.81
22917;DHT22;11624;53.250;7.456;2023-07-29T03:24:14;24.48;58.70
22917;DHT22;11624;53.250;7.456;2023-07-29T03:26:42;24.47;58.64
22917;DHT22;11624;53.250;7.456;2023-07-29T03:29:12;24.46;58.61
22917;DHT22;11624;53.250;7.456;2023-07-29T03:31:41;24.48;58.51
22917;DHT22;11624;53.250;7.456;2023-07-29T03:34:09;24.47;58.43
22917;DHT22;11624;53.250;7.456;2023-07-29T03:36:42;24.47;58.36
22917;DHT22;11624;53.250;7.456;2023-07-29T03:39:10;24.50;58.18
22917;DHT22;11624;53.250;7.456;2023-07-29T03:41:40;24.49;58.14
22917;DHT22;11624;53.250;7.456;2023-07-29T03:44:08;24.49;58.14
22917;DHT22;11624;53.250;7.456;2023-07-29T03:46:38;24.49;58.06
22917;DHT22;11624;53.250;7.456;2023-07-29T03:49:08;24.51;57.99
22917;DHT22;11624;53.250;7.456;2023-07-29T03:51:36;24.53;57.96
22917;DHT22;11624;53.250;7.456;2023-07-29T03:54:04;24.50;57.90
22917;DHT22;11624;53.250;7.456;2023-07-29T03:56:33;24.51;57.81
22917;DHT22;11624;53.250;7.456;2023-07-29T03:59:05;24.50;57.69
22917;DHT22;11624;53.250;7.456;2023-07-29T04:01:33;24.48;57.77
22917;DHT22;11624;53.250;7.456;2023-07-29T04:04:02;24.44;57.87
22917;DHT22;11624;53.250;7.456;2023-07-29T04:06:31;24.43;57.90
22917;DHT22;11624;53.250;7.456;2023-07-29T04:09:00;24.43;57.92
22917;DHT22;11624;53.250;7.456;2023-07-29T04:11:29;24.45;57.86
22917;DHT22;11624;53.250;7.456;2023-07-29T04:13:57;24.45;57.89
22917;DHT22;11624;53.250;7.456;2023-07-29T04:16:27;24.45;57.94
22917;DHT22;11624;53.250;7.456;2023-07-29T04:18:56;24.44;57.90
22917;DHT22;11624;53.250;7.456;2023-07-29T04:21:25;24.45;57.90
22917;DHT22;11624;53.250;7.456;2023-07-29T04:23:53;24.44;57.92
22917;DHT22;11624;53.250;7.456;2023-07-29T04:26:21;24.45;57.93
22917;DHT22;11624;53.250;7.456;2023-07-29T04:28:50;24.47;57.87
22917;DHT22;11624;53.250;7.456;2023-07-29T04:31:18;24.49;57.76
22917;DHT22;11624;53.250;7.456;2023-07-29T04:33:48;24.53;57.65
22917;DHT22;11624;53.250;7.456;2023-07-29T04:36:16;24.51;57.66
22917;DHT22;11624;53.250;7.456;2023-07-29T04:38:45;24.48;57.74
22917;DHT22;11624;53.250;7.456;2023-07-29T04:41:13;24.49;57.78
22917;DHT22;11624;53.250;7.456;2023-07-29T04:43:42;24.46;57.80
22917;DHT22;11624;53.250;7.456;2023-07-29T04:46:10;24.44;57.92
22917;DHT22;11624;53.250;7.456;2023-07-29T04:48:39;24.44;57.96
22917;DHT22;11624;53.250;7.456;2023-07-29T04:51:09;24.45;57.96
22917;DHT22;11624;53.250;7.456;2023-07-29T04:53:39;24.43;58.02
22917;DHT22;11624;53.250;7.456;2023-07-29T04:56:08;24.42;58.08
22917;DHT22;11624;53.250;7.456;2023-07-29T04:58:37;24.43;58.09
22917;DHT22;11624;53.250;7.456;2023-07-29T05:01:06;24.47;58.01
22917;DHT22;11624;53.250;7.456;2023-07-29T05:03:34;24.48;57.95
22917;DHT22;11624;53.250;7.456;2023-07-29T05:06:04;24.50;57.82
22917;DHT22;11624;53.250;7.456;2023-07-29T05:08:34;24.49;57.86
22917;DHT22;11624;53.250;7.456;2023-07-29T05:11:03;24.48;57.92
22917;DHT22;11624;53.250;7.456;2023-07-29T05:13:31;24.50;57.99
22917;DHT22;11624;53.250;7.456;2023-07-29T05:15:59;24.57;57.81
22917;DHT22;11624;53.250;7.456;2023-07-29T05:18:28;24.60;57.74
22917;DHT22;11624;53.250;7.456;2023-07-29T05:20:56;24.61;57.58
22917;DHT22;11624;53.250;7.456;2023-07-29T05:23:24;24.62;57.62
22917;DHT22;11624;53.250;7.456;2023-07-29T05:25:54;24.66;57.55
22917;DHT22;11624;53.250;7.456;2023-07-29T05:28:23;24.75;57.50
22917;DHT22;11624;53.250;7.456;2023-07-29T05:30:51;24.87;57.51
22917;DHT22;11624;53.250;7.456;2023-07-29T05:33:20;24.93;57.08
22917;DHT22;11624;53.250;7.456;2023-07-29T05:35:48;24.95;56.90
22917;DHT22;11624;53.250;7.456;2023-07-29T05:38:16;25.02;56.68
22917;DHT22;11624;53.250;7.456;2023-07-29T05:40:45;25.00;56.52
22917;DHT22;11624;53.250;7.456;2023-07-29T05:43:17;25.01;56.48
22917;DHT22;11624;53.250;7.456;2023-07-29T05:45:45;25.02;56.24
22917;DHT22;11624;53.250;7.456;2023-07-29T05:48:14;24.99;56.13
22917;DHT22;11624;53.250;7.456;2023-07-29T05:50:42;25.05;56.00
22917;DHT22;11624;53.250;7.456;2023-07-29T05:53:11;25.04;55.81
22917;DHT22;11624;53.250;7.456;2023-07-29T05:55:39;25.09;55.65
22917;DHT22;11624;53.250;7.456;2023-07-29T05:58:07;25.04;55.32
22917;DHT22;11624;53.250;7.456;2023-07-29T06:00:37;25.01;55.58
22917;DHT22;11624;53.250;7.456;2023-07-29T06:03:06;25.02;55.33
22917;DHT22;11624;53.250;7.456;2023-07-29T06:05:34;25.07;55.38
22917;DHT22;11624;53.250;7.456;2023-07-29T06:08:03;25.10;55.34
22917;DHT22;11624;53.250;7.456;2023-07-29T06:10:32;25.15;55.10
22917;DHT22;11624;53.250;7.456;2023-07-29T06:13:00;25.13;55.23
22917;DHT22;11624;53.250;7.456;2023-07-29T06:15:29;25.21;55.24
22917;DHT22;11624;53.250;7.456;2023-07-29T06:17:59;25.29;55.13
22917;DHT22;11624;53.250;7.456;2023-07-29T06:20:27;25.31;55.00
22917;DHT22;11624;53.250;7.456;2023-07-29T06:22:56;25.43;54.94
22917;DHT22;11624;53.250;7.456;2023-07-29T06:25:24;25.46;54.63
22917;DHT22;11624;53.250;7.456;2023-07-29T06:27:53;25.44;54.62
22917;DHT22;11624;53.250;7.456;2023-07-29T06:30:21;25.50;54.71
22917;DHT22;11624;53.250;7.456;2023-07-29T06:32:49;25.57;54.31
22917;DHT22;11624;53.250;7.456;2023-07-29T06:35:19;25.56;54.01
22917;DHT22;11624;53.250;7.456;2023-07-29T06:37:48;25.50;54.01
22917;DHT22;11624;53.250;7.456;2023-07-29T06:40:16;25.45;53.88
22917;DHT22;11624;53.250;7.456;2023-07-29T06:42:44;25.46;53.97
22917;DHT22;11624;53.250;7.456;2023-07-29T06:45:13;25.46;54.04
22917;DHT22;11624;53.250;7.456;2023-07-29T06:47:42;25.46;53.70
22917;DHT22;11624;53.250;7.456;2023-07-29T06:50:11;25.48;53.68
22917;DHT22;11624;53.250;7.456;2023-07-29T06:52:41;25.57;53.51
22917;DHT22;11624;53.250;7.456;2023-07-29T06:55:09;25.65;53.16
22917;DHT22;11624;53.250;7.456;2023-07-29T06:57:37;25.71;52.89
22917;DHT22;11624;53.250;7.456;2023-07-29T07:00:07;25.77;53.00
22917;DHT22;11624;53.250;7.456;2023-07-29T07:02:36;25.80;52.37
22917;DHT22;11624;53.250;7.456;2023-07-29T07:05:05;25.92;52.46
22917;DHT22;11624;53.250;7.456;2023-07-29T07:07:33;26.07;52.43
22917;DHT22;11624;53.250;7.456;2023-07-29T07:10:04;26.30;52.14
22917;DHT22;11624;53.250;7.456;2023-07-29T07:12:32;26.43;51.14
22917;DHT22;11624;53.250;7.456;2023-07-29T07:15:01;26.36;50.69
22917;DHT22;11624;53.250;7.456;2023-07-29T07:17:29;26.41;50.37
22917;DHT22;11624;53.250;7.456;2023-07-29T07:19:58;26.30;50.30
22917;DHT22;11624;53.250;7.456;2023-07-29T07:22:26;26.32;50.85
22917;DHT22;11624;53.250;7.456;2023-07-29T07:24:54;26.53;50.75
22917;DHT22;11624;53.250;7.456;2023-07-29T07:27:24;26.50;50.21
22917;DHT22;11624;53.250;7.456;2023-07-29T07:29:52;26.38;50.11
22917;DHT22;11624;53.250;7.456;2023-07-29T07:32:21;26.43;50.33
22917;DHT22;11624;53.250;7.456;2023-07-29T07:34:49;26.48;49.86
22917;DHT22;11624;53.250;7.456;2023-07-29T07:37:18;26.51;50.19
22917;DHT22;11624;53.250;7.456;2023-07-29T07:39:46;26.66;50.31
22917;DHT22;11624;53.250;7.456;2023-07-29T07:42:15;27.01;50.15
22917;DHT22;11624;53.250;7.456;2023-07-29T07:44:44;27.46;48.57
22917;DHT22;11624;53.250;7.456;2023-07-29T07:47:13;27.54;48.01
22917;DHT22;11624;53.250;7.456;2023-07-29T07:49:41;27.65;47.83
22917;DHT22;11624;53.250;7.456;2023-07-29T07:52:09;27.86;47.30
22917;DHT22;11624;53.250;7.456;2023-07-29T07:54:38;28.11;47.47
22917;DHT22;11624;53.250;7.456;2023-07-29T07:57:06;28.25;46.38
22917;DHT22;11624;53.250;7.456;2023-07-29T07:59:34;28.32;45.86
22917;DHT22;11624;53.250;7.456;2023-07-29T08:02:05;28.31;46.11
22917;DHT22;11624;53.250;7.456;2023-07-29T08:04:33;28.27;46.07
22917;DHT22;11624;53.250;7.456;2023-07-29T08:07:01;28.12;46.47
22917;DHT22;11624;53.250;7.456;2023-07-29T08:09:30;28.14;46.37
22917;DHT22;11624;53.250;7.456;2023-07-29T08:11:58;28.11;46.87
22917;DHT22;11624;53.250;7.456;2023-07-29T08:14:26;28.30;46.35
22917;DHT22;11624;53.250;7.456;2023-07-29T08:16:55;28.16;46.00
22917;DHT22;11624;53.250;7.456;2023-07-29T08:19:24;27.72;47.00
22917;DHT22;11624;53.250;7.456;2023-07-29T08:21:53;27.85;46.34
22917;DHT22;11624;53.250;7.456;2023-07-29T08:24:21;27.87;46.72
22917;DHT22;11624;53.250;7.456;2023-07-29T08:26:50;28.17;47.12
22917;DHT22;11624;53.250;7.456;2023-07-29T08:29:18;28.60;45.37
22917;DHT22;11624;53.250;7.456;2023-07-29T08:31:46;28.73;44.54
22917;DHT22;11624;53.250;7.456;2023-07-29T08:34:15;28.73;44.66
22917;DHT22;11624;53.250;7.456;2023-07-29T08:36:44;28.61;44.25
22917;DHT22;11624;53.250;7.456;2023-07-29T08:39:13;28.32;44.38
22917;DHT22;11624;53.250;7.456;2023-07-29T08:41:48;28.29;44.84
22917;DHT22;11624;53.250;7.456;2023-07-29T08:44:21;28.16;44.55
22917;DHT22;11624;53.250;7.456;2023-07-29T08:46:50;28.09;45.03
22917;DHT22;11624;53.250;7.456;2023-07-29T08:49:21;27.99;45.66
22917;DHT22;11624;53.250;7.456;2023-07-29T08:51:53;27.95;45.60
22917;DHT22;11624;53.250;7.456;2023-07-29T08:54:22;27.94;46.06
22917;DHT22;11624;53.250;7.456;2023-07-29T08:56:50;27.81;45.85
22917;DHT22;11624;53.250;7.456;2023-07-29T08:59:19;27.69;46.44
22917;DHT22;11624;53.250;7.456;2023-07-29T09:01:48;27.74;46.38
22917;DHT22;11624;53.250;7.456;2023-07-29T09:04:17;27.65;46.78
22917;DHT22;11624;53.250;7.456;2023-07-29T09:06:47;27.60;46.97
22917;DHT22;11624;53.250;7.456;2023-07-29T09:09:17;27.69;47.06
22917;DHT22;11624;53.250;7.456;2023-07-29T09:11:45;27.64;46.92
22917;DHT22;11624;53.250;7.456;2023-07-29T09:14:14;27.56;46.95
22917;DHT22;11624;53.250;7.456;2023-07-29T09:16:43;27.64;47.20
22917;DHT22;11624;53.250;7.456;2023-07-29T09:19:12;27.59;47.31
22917;DHT22;11624;53.250;7.456;2023-07-29T09:21:41;27.91;47.25
22917;DHT22;11624;53.250;7.456;2023-07-29T09:24:09;28.21;46.49
22917;DHT22;11624;53.250;7.456;2023-07-29T09:26:48;28.29;45.63
22917;DHT22;11624;53.250;7.456;2023-07-29T09:29:21;28.55;45.94
22917;DHT22;11624;53.250;7.456;2023-07-29T09:31:50;29.06;44.65
22917;DHT22;11624;53.250;7.456;2023-07-29T09:34:19;29.39;42.73
22917;DHT22;11624;53.250;7.456;2023-07-29T09:36:50;29.42;41.75
22917;DHT22;11624;53.250;7.456;2023-07-29T09:39:23;29.73;42.23
22917;DHT22;11624;53.250;7.456;2023-07-29T09:41:53;29.80;40.44
22917;DHT22;11624;53.250;7.456;2023-07-29T09:44:23;29.66;40.92
22917;DHT22;11624;53.250;7.456;2023-07-29T09:46:51;29.26;41.64
22917;DHT22;11624;53.250;7.456;2023-07-29T09:49:20;29.34;42.29
22917;DHT22;11624;53.250;7.456;2023-07-29T09:51:50;29.61;42.65
22917;DHT22;11624;53.250;7.456;2023-07-29T09:54:19;29.73;41.81
22917;DHT22;11624;53.250;7.456;2023-07-29T09:56:48;29.60;41.87
22917;DHT22;11624;53.250;7.456;2023-07-29T09:59:23;29.44;41.58
22917;DHT22;11624;53.250;7.456;2023-07-29T10:01:51;29.28;42.23
22917;DHT22;11624;53.250;7.456;2023-07-29T10:04:21;29.27;42.37
22917;DHT22;11624;53.250;7.456;2023-07-29T10:06:49;29.38;42.47
22917;DHT22;11624;53.250;7.456;2023-07-29T10:09:19;29.53;42.10
22917;DHT22;11624;53.250;7.456;2023-07-29T10:11:49;29.32;41.71
22917;DHT22;11624;53.250;7.456;2023-07-29T10:14:22;29.24;42.36
22917;DHT22;11624;53.250;7.456;2023-07-29T10:16:50;29.16;42.03
22917;DHT22;11624;53.250;7.456;2023-07-29T10:19:19;29.12;42.97
22917;DHT22;11624;53.250;7.456;2023-07-29T10:21:52;29.00;43.23
22917;DHT22;11624;53.250;7.456;2023-07-29T10:24:25;28.97;43.26
22917;DHT22;11624;53.250;7.456;2023-07-29T10:26:58;29.06;43.28
22917;DHT22;11624;53.250;7.456;2023-07-29T10:29:31;29.08;42.71
22917;DHT22;11624;53.250;7.456;2023-07-29T10:32:01;28.99;42.65
22917;DHT22;11624;53.250;7.456;2023-07-29T10:34:30;28.87;43.19
22917;DHT22;11624;53.250;7.456;2023-07-29T10:37:00;28.78;43.26
22917;DHT22;11624;53.250;7.456;2023-07-29T10:39:37;28.91;43.10
22917;DHT22;11624;53.250;7.456;2023-07-29T10:42:06;29.04;42.97
22917;DHT22;11624;53.250;7.456;2023-07-29T10:44:49;29.08;42.98
22917;DHT22;11624;53.250;7.456;2023-07-29T10:47:20;29.14;43.14
22917;DHT22;11624;53.250;7.456;2023-07-29T10:49:51;29.22;43.08
22917;DHT22;11624;53.250;7.456;2023-07-29T10:52:40;29.16;42.32
22917;DHT22;11624;53.250;7.456;2023-07-29T10:55:29;29.56;42.37
22917;DHT22;11624;53.250;7.456;2023-07-29T10:58:08;29.67;41.67
22917;DHT22;11624;53.250;7.456;2023-07-29T11:00:38;30.13;41.92
22917;DHT22;11624;53.250;7.456;2023-07-29T11:03:07;30.48;39.78
22917;DHT22;11624;53.250;7.456;2023-07-29T11:05:47;30.80;39.00
22917;DHT22;11624;53.250;7.456;2023-07-29T11:08:25;31.09;38.71
22917;DHT22;11624;53.250;7.456;2023-07-29T11:11:05;31.46;37.79
22917;DHT22;11624;53.250;7.456;2023-07-29T11:13:35;31.71;37.30
22917;DHT22;11624;53.250;7.456;2023-07-29T11:16:05;31.82;36.91
22917;DHT22;11624;53.250;7.456;2023-07-29T11:21:17;32.11;36.53
22917;DHT22;11624;53.250;7.456;2023-07-29T11:23:45;32.10;35.90
22917;DHT22;11624;53.250;7.456;2023-07-29T11:26:13;32.17;35.60
22917;DHT22;11624;53.250;7.456;2023-07-29T11:28:42;32.16;34.93
22917;DHT22;11624;53.250;7.456;2023-07-29T11:31:11;32.46;35.99
22917;DHT22;11624;53.250;7.456;2023-07-29T11:33:41;32.97;34.82
22917;DHT22;11624;53.250;7.456;2023-07-29T11:36:17;33.17;33.34
22917;DHT22;11624;53.250;7.456;2023-07-29T11:38:46;33.41;32.22
22917;DHT22;11624;53.250;7.456;2023-07-29T11:41:19;33.48;31.68
22917;DHT22;11624;53.250;7.456;2023-07-29T11:43:47;33.85;31.44
22917;DHT22;11624;53.250;7.456;2023-07-29T11:46:21;33.74;30.96
22917;DHT22;11624;53.250;7.456;2023-07-29T11:53:15;32.46;34.28
22917;DHT22;11624;53.250;7.456;2023-07-29T11:55:44;32.23;34.98
22917;DHT22;11624;53.250;7.456;2023-07-29T11:58:12;31.96;35.45
22917;DHT22;11624;53.250;7.456;2023-07-29T12:00:40;31.69;35.21
22917;DHT22;11624;53.250;7.456;2023-07-29T12:03:10;31.53;35.98
22917;DHT22;11624;53.250;7.456;2023-07-29T12:05:39;31.59;36.61
22917;DHT22;11624;53.250;7.456;2023-07-29T12:08:08;31.67;36.43
22917;DHT22;11624;53.250;7.456;2023-07-29T12:10:37;31.42;36.85
22917;DHT22;11624;53.250;7.456;2023-07-29T12:13:07;31.21;36.72
22917;DHT22;11624;53.250;7.456;2023-07-29T12:15:38;30.94;37.37
22917;DHT22;11624;53.250;7.456;2023-07-29T12:18:07;30.70;38.39
22917;DHT22;11624;53.250;7.456;2023-07-29T12:20:37;30.65;38.78
22917;DHT22;11624;53.250;7.456;2023-07-29T12:23:05;30.64;39.31
22917;DHT22;11624;53.250;7.456;2023-07-29T12:25:34;30.56;38.95
22917;DHT22;11624;53.250;7.456;2023-07-29T12:28:03;30.38;39.49
22917;DHT22;11624;53.250;7.456;2023-07-29T12:30:33;30.15;41.63
22917;DHT22;11624;53.250;7.456;2023-07-29T12:33:01;29.83;41.33
22917;DHT22;11624;53.250;7.456;2023-07-29T12:35:37;29.54;42.08
22917;DHT22;11624;53.250;7.456;2023-07-29T12:38:05;30.17;42.03
22917;DHT22;11624;53.250;7.456;2023-07-29T12:40:38;31.01;41.38
22917;DHT22;11624;53.250;7.456;2023-07-29T12:43:09;31.66;39.02
22917;DHT22;11624;53.250;7.456;2023-07-29T12:45:37;32.05;35.85
22917;DHT22;11624;53.250;7.456;2023-07-29T12:48:07;32.16;34.88
22917;DHT22;11624;53.250;7.456;2023-07-29T12:50:37;32.18;34.00
22917;DHT22;11624;53.250;7.456;2023-07-29T12:53:06;31.97;35.28
22917;DHT22;11624;53.250;7.456;2023-07-29T12:55:35;32.29;34.02
22917;DHT22;11624;53.250;7.456;2023-07-29T12:58:03;32.31;34.24
22917;DHT22;11624;53.250;7.456;2023-07-29T13:00:31;32.15;34.45
22917;DHT22;11624;53.250;7.456;2023-07-29T13:03:00;32.22;35.05
22917;DHT22;11624;53.250;7.456;2023-07-29T13:05:28;32.13;35.36
22917;DHT22;11624;53.250;7.456;2023-07-29T13:07:57;32.04;34.68
22917;DHT22;11624;53.250;7.456;2023-07-29T13:10:26;32.07;35.62
22917;DHT22;11624;53.250;7.456;2023-07-29T13:12:54;31.96;36.19
22917;DHT22;11624;53.250;7.456;2023-07-29T13:15:22;31.76;36.88
22917;DHT22;11624;53.250;7.456;2023-07-29T13:17:51;31.61;37.24
22917;DHT22;11624;53.250;7.456;2023-07-29T13:20:19;31.25;37.96
22917;DHT22;11624;53.250;7.456;2023-07-29T13:22:47;31.05;38.84
22917;DHT22;11624;53.250;7.456;2023-07-29T13:25:16;31.01;38.96
22917;DHT22;11624;53.250;7.456;2023-07-29T13:27:44;30.76;39.58
22917;DHT22;11624;53.250;7.456;2023-07-29T13:30:12;30.57;40.07
22917;DHT22;11624;53.250;7.456;2023-07-29T13:32:40;30.17;41.21
22917;DHT22;11624;53.250;7.456;2023-07-29T13:35:09;29.77;41.36
22917;DHT22;11624;53.250;7.456;2023-07-29T13:37:37;29.80;41.57
22917;DHT22;11624;53.250;7.456;2023-07-29T13:40:06;29.54;42.54
22917;DHT22;11624;53.250;7.456;2023-07-29T13:42:36;29.64;43.67
22917;DHT22;11624;53.250;7.456;2023-07-29T13:45:05;30.09;43.29
22917;DHT22;11624;53.250;7.456;2023-07-29T13:47:33;30.31;40.77
22917;DHT22;11624;53.250;7.456;2023-07-29T13:50:02;30.30;40.01
22917;DHT22;11624;53.250;7.456;2023-07-29T13:52:30;30.51;40.36
22917;DHT22;11624;53.250;7.456;2023-07-29T13:54:58;30.72;39.41
22917;DHT22;11624;53.250;7.456;2023-07-29T13:57:26;30.90;37.96
22917;DHT22;11624;53.250;7.456;2023-07-29T13:59:56;31.24;37.07
22917;DHT22;11624;53.250;7.456;2023-07-29T14:02:24;31.49;35.97
22917;DHT22;11624;53.250;7.456;2023-07-29T14:04:53;31.46;36.29
22917;DHT22;11624;53.250;7.456;2023-07-29T14:07:21;31.66;36.60
22917;DHT22;11624;53.250;7.456;2023-07-29T14:09:50;31.87;35.64
22917;DHT22;11624;53.250;7.456;2023-07-29T14:12:18;31.29;35.92
22917;DHT22;11624;53.250;7.456;2023-07-29T14:14:46;30.94;36.81
22917;DHT22;11624;53.250;7.456;2023-07-29T14:17:16;30.75;37.16
22917;DHT22;11624;53.250;7.456;2023-07-29T14:19:44;30.65;37.63
22917;DHT22;11624;53.250;7.456;2023-07-29T14:22:12;30.56;39.18
22917;DHT22;11624;53.250;7.456;2023-07-29T14:24:40;30.47;40.50
22917;DHT22;11624;53.250;7.456;2023-07-29T14:27:08;30.48;41.05
22917;DHT22;11624;53.250;7.456;2023-07-29T14:29:36;30.30;41.59
22917;DHT22;11624;53.250;7.456;2023-07-29T14:32:05;30.04;41.58
22917;DHT22;11624;53.250;7.456;2023-07-29T14:34:34;29.78;42.43
22917;DHT22;11624;53.250;7.456;2023-07-29T14:37:02;30.10;42.77
22917;DHT22;11624;53.250;7.456;2023-07-29T14:39:31;30.62;41.29
22917;DHT22;11624;53.250;7.456;2023-07-29T14:41:59;31.09;40.17
22917;DHT22;11624;53.250;7.456;2023-07-29T14:44:27;31.22;39.42
22917;DHT22;11624;53.250;7.456;2023-07-29T14:46:55;31.29;39.27
22917;DHT22;11624;53.250;7.456;2023-07-29T14:49:23;30.95;39.81
22917;DHT22;11624;53.250;7.456;2023-07-29T14:51:53;30.87;39.47
22917;DHT22;11624;53.250;7.456;2023-07-29T14:54:22;30.70;39.88
22917;DHT22;11624;53.250;7.456;2023-07-29T14:56:50;30.72;40.75
22917;DHT22;11624;53.250;7.456;2023-07-29T14:59:18;30.80;40.72
22917;DHT22;11624;53.250;7.456;2023-07-29T15:01:46;30.62;40.62
22917;DHT22;11624;53.250;7.456;2023-07-29T15:04:14;30.33;40.91
22917;DHT22;11624;53.250;7.456;2023-07-29T15:06:43;30.07;41.46
22917;DHT22;11624;53.250;7.456;2023-07-29T15:09:12;29.90;40.89
22917;DHT22;11624;53.250;7.456;2023-07-29T15:11:40;29.66;41.65
22917;DHT22;11624;53.250;7.456;2023-07-29T15:14:09;29.19;42.29
22917;DHT22;11624;53.250;7.456;2023-07-29T15:16:37;28.99;43.35
22917;DHT22;11624;53.250;7.456;2023-07-29T15:19:06;28.94;44.42
22917;DHT22;11624;53.250;7.456;2023-07-29T15:21:34;28.77;45.06
22917;DHT22;11624;53.250;7.456;2023-07-29T15:24:03;28.62;45.64
22917;DHT22;11624;53.250;7.456;2023-07-29T15:26:34;28.82;46.24
22917;DHT22;11624;53.250;7.456;2023-07-29T15:29:02;29.16;44.61
22917;DHT22;11624;53.250;7.456;2023-07-29T15:31:31;29.43;43.16
22917;DHT22;11624;53.250;7.456;2023-07-29T15:33:59;29.63;42.15
22917;DHT22;11624;53.250;7.456;2023-07-29T15:36:30;29.72;40.74
22917;DHT22;11624;53.250;7.456;2023-07-29T15:38:58;29.83;41.28
22917;DHT22;11624;53.250;7.456;2023-07-29T15:41:26;29.91;41.20
22917;DHT22;11624;53.250;7.456;2023-07-29T15:43:55;30.07;41.03
22917;DHT22;11624;53.250;7.456;2023-07-29T15:46:24;30.11;40.23
22917;DHT22;11624;53.250;7.456;2023-07-29T15:48:52;30.09;40.70
22917;DHT22;11624;53.250;7.456;2023-07-29T15:51:22;30.23;40.56